Quick Links (Output Below):   Max & Min Temps   /   Climate Reports   /   Zone Forecasts
River Forecasts   /   Forestry Forecasts   /   Aviation Forecasts   /   Radars   /   Features

Terminal Aerodrome Forecast (Pine Bluff)

Pick a Site:
Arkadelphia | El Dorado | Fayetteville | Fort Smith | Harrison | Highfill | Hot Springs | Jonesboro
Little Rock | Monticello | Mountain Home | Pine Bluff | Texarkana
 Forecast 

KPBF 262339Z 2700/2724 36006KT P6SM BKN250
     FM271400 03012G20KT P6SM SCT100 BKN250
     FM271800 03011G20KT P6SM OVC100=


 Latest METARs (Observations) 
How to Decode METARs
03Z KPBF 270253Z AUTO 01010KT 10SM CLR M01/M07 A3040 RMK AO2 SLP297
         T10111067 53035
         
02Z KPBF 270153Z AUTO 02013KT 10SM CLR 00/M06 A3035 RMK AO2 SLP278
         T00001061
         
01Z KPBF 270053Z AUTO 02010KT 10SM CLR 00/M05 A3034 RMK AO2 PRESRR
         SLP275 T00001050
         
00Z KPBF 262353Z AUTO 02010KT 10SM CLR 01/M04 A3030 RMK AO2 SLP261
         T00111039 10022 20011 51020
         
***** Today's Observations (Above) *****


23Z KPBF 262253Z AUTO 36010KT 10SM BKN035 02/M04 A3030 RMK AO2 PRESRR
         SLP260 T00221039
         
22Z KPBF 262153Z AUTO 36010KT 10SM OVC036 02/M04 A3026 RMK AO2 SLP249
         T00171039
         
21Z KPBF 262053Z AUTO 35011KT 10SM BKN026 OVC036 02/M04 A3024 RMK AO2
         SLP241 T00171039 53011
         
20Z KPBF 261953Z AUTO 34015KT 10SM OVC024 01/M04 A3023 RMK AO2 SLP237
         T00111039
         
19Z KPBF 261853Z AUTO 34014KT 10SM OVC023 01/M03 A3022 RMK AO2 SLP233
         T00111033
         
18Z KPBF 261753Z AUTO 34010KT 10SM OVC020 01/M03 A3021 RMK AO2 SLP230
         T00111028 10011 21017 51031
         
***** Yesterday's Observations (Above) *****


Back to Main Page
http://www.srh.noaa.gov/lzk/qfcst.php

USA.gov is the U.S. government's official web portal to all federal, state and local government web resources and services.